sensor_id;sensor_type;location;lat;lon;timestamp;pressure;altitude;pressure_sealevel;temperature;humidity
56668;BME280;42542;48.360;10.958;2023-07-22T00:01:02;96119.34;;;15.08;86.73
56668;BME280;42542;48.360;10.958;2023-07-22T00:04:06;96125.13;;;15.05;87.11
56668;BME280;42542;48.360;10.958;2023-07-22T00:07:11;96121.97;;;15.02;87.07
56668;BME280;42542;48.360;10.958;2023-07-22T00:10:18;96120.88;;;14.96;87.67
56668;BME280;42542;48.360;10.958;2023-07-22T00:13:22;96124.97;;;14.92;88.17
56668;BME280;42542;48.360;10.958;2023-07-22T00:16:27;96122.03;;;14.87;88.63
56668;BME280;42542;48.360;10.958;2023-07-22T00:19:33;96122.22;;;14.85;88.94
56668;BME280;42542;48.360;10.958;2023-07-22T00:22:39;96128.19;;;14.81;89.06
56668;BME280;42542;48.360;10.958;2023-07-22T00:25:46;96125.84;;;14.78;89.48
56668;BME280;42542;48.360;10.958;2023-07-22T00:28:49;96123.94;;;14.72;89.37
56668;BME280;42542;48.360;10.958;2023-07-22T00:31:53;96119.97;;;14.68;89.66
56668;BME280;42542;48.360;10.958;2023-07-22T00:34:57;96117.81;;;14.63;89.54
56668;BME280;42542;48.360;10.958;2023-07-22T00:38:02;96113.03;;;14.59;89.91
56668;BME280;42542;48.360;10.958;2023-07-22T00:41:06;96112.75;;;14.54;90.09
56668;BME280;42542;48.360;10.958;2023-07-22T00:44:09;96111.09;;;14.53;90.74
56668;BME280;42542;48.360;10.958;2023-07-22T00:47:12;96103.78;;;14.47;90.43
56668;BME280;42542;48.360;10.958;2023-07-22T00:50:17;96113.69;;;14.46;90.96
56668;BME280;42542;48.360;10.958;2023-07-22T00:53:19;96104.31;;;14.42;90.87
56668;BME280;42542;48.360;10.958;2023-07-22T00:56:28;96099.50;;;14.37;91.64
56668;BME280;42542;48.360;10.958;2023-07-22T00:59:34;96103.19;;;14.36;91.75
56668;BME280;42542;48.360;10.958;2023-07-22T01:02:39;96095.72;;;14.32;91.50
56668;BME280;42542;48.360;10.958;2023-07-22T01:05:48;96087.16;;;14.28;91.91
56668;BME280;42542;48.360;10.958;2023-07-22T01:08:54;96094.97;;;14.23;92.16
56668;BME280;42542;48.360;10.958;2023-07-22T01:11:59;96084.22;;;14.23;92.59
56668;BME280;42542;48.360;10.958;2023-07-22T01:15:02;96094.31;;;14.21;92.75
56668;BME280;42542;48.360;10.958;2023-07-22T01:18:19;96089.34;;;14.18;93.34
56668;BME280;42542;48.360;10.958;2023-07-22T01:21:26;96094.06;;;14.16;93.51
56668;BME280;42542;48.360;10.958;2023-07-22T01:24:31;96080.97;;;14.13;93.81
56668;BME280;42542;48.360;10.958;2023-07-22T01:27:34;96087.38;;;14.12;94.48
56668;BME280;42542;48.360;10.958;2023-07-22T01:30:39;96083.22;;;14.10;94.50
56668;BME280;42542;48.360;10.958;2023-07-22T01:33:43;96085.06;;;14.09;94.72
56668;BME280;42542;48.360;10.958;2023-07-22T01:36:50;96081.72;;;14.07;94.91
56668;BME280;42542;48.360;10.958;2023-07-22T01:39:54;96076.75;;;14.04;95.40
56668;BME280;42542;48.360;10.958;2023-07-22T01:43:00;96082.28;;;14.02;94.97
56668;BME280;42542;48.360;10.958;2023-07-22T01:46:04;96085.16;;;14.01;95.15
56668;BME280;42542;48.360;10.958;2023-07-22T01:49:16;96094.41;;;13.98;94.72
56668;BME280;42542;48.360;10.958;2023-07-22T01:52:21;96090.44;;;13.94;95.16
56668;BME280;42542;48.360;10.958;2023-07-22T01:55:24;96102.41;;;13.92;94.90
56668;BME280;42542;48.360;10.958;2023-07-22T01:58:28;96094.72;;;13.89;94.98
56668;BME280;42542;48.360;10.958;2023-07-22T02:01:35;96092.38;;;13.86;95.20
56668;BME280;42542;48.360;10.958;2023-07-22T02:04:38;96086.56;;;13.82;95.54
56668;BME280;42542;48.360;10.958;2023-07-22T02:07:43;96093.31;;;13.78;95.99
56668;BME280;42542;48.360;10.958;2023-07-22T02:10:45;96095.81;;;13.80;95.61
56668;BME280;42542;48.360;10.958;2023-07-22T02:13:51;96096.19;;;13.77;95.94
56668;BME280;42542;48.360;10.958;2023-07-22T02:16:54;96100.94;;;13.75;96.28
56668;BME280;42542;48.360;10.958;2023-07-22T02:19:58;96095.91;;;13.72;96.57
56668;BME280;42542;48.360;10.958;2023-07-22T02:23:02;96105.81;;;13.71;96.67
56668;BME280;42542;48.360;10.958;2023-07-22T02:26:08;96101.66;;;13.68;97.26
56668;BME280;42542;48.360;10.958;2023-07-22T02:29:11;96105.53;;;13.66;97.08
56668;BME280;42542;48.360;10.958;2023-07-22T02:32:17;96103.88;;;13.65;96.86
56668;BME280;42542;48.360;10.958;2023-07-22T02:35:21;96102.38;;;13.62;97.04
56668;BME280;42542;48.360;10.958;2023-07-22T02:38:24;96105.28;;;13.61;97.10
56668;BME280;42542;48.360;10.958;2023-07-22T02:41:26;96096.56;;;13.59;97.66
56668;BME280;42542;48.360;10.958;2023-07-22T02:44:29;96099.41;;;13.57;97.81
56668;BME280;42542;48.360;10.958;2023-07-22T02:47:36;96108.47;;;13.56;97.94
56668;BME280;42542;48.360;10.958;2023-07-22T02:50:42;96110.34;;;13.56;97.89
56668;BME280;42542;48.360;10.958;2023-07-22T02:53:51;96103.50;;;13.53;98.41
56668;BME280;42542;48.360;10.958;2023-07-22T02:56:58;96108.66;;;13.55;98.76
56668;BME280;42542;48.360;10.958;2023-07-22T03:00:02;96115.25;;;13.52;98.36
56668;BME280;42542;48.360;10.958;2023-07-22T03:03:08;96111.72;;;13.52;98.42
56668;BME280;42542;48.360;10.958;2023-07-22T03:06:14;96117.28;;;13.50;98.70
56668;BME280;42542;48.360;10.958;2023-07-22T03:09:22;96106.72;;;13.49;98.96
56668;BME280;42542;48.360;10.958;2023-07-22T03:12:30;96108.94;;;13.45;98.88
56668;BME280;42542;48.360;10.958;2023-07-22T03:15:32;96112.25;;;13.47;99.24
56668;BME280;42542;48.360;10.958;2023-07-22T03:18:36;96114.94;;;13.47;99.21
56668;BME280;42542;48.360;10.958;2023-07-22T03:21:41;96113.31;;;13.46;99.17
56668;BME280;42542;48.360;10.958;2023-07-22T03:24:48;96114.31;;;13.45;99.10
56668;BME280;42542;48.360;10.958;2023-07-22T03:27:52;96126.06;;;13.44;99.18
56668;BME280;42542;48.360;10.958;2023-07-22T03:30:57;96133.28;;;13.44;99.08
56668;BME280;42542;48.360;10.958;2023-07-22T03:34:04;96131.78;;;13.41;99.09
56668;BME280;42542;48.360;10.958;2023-07-22T03:37:15;96135.47;;;13.40;99.27
56668;BME280;42542;48.360;10.958;2023-07-22T03:40:18;96127.63;;;13.39;99.08
56668;BME280;42542;48.360;10.958;2023-07-22T03:43:22;96131.31;;;13.38;99.00
56668;BME280;42542;48.360;10.958;2023-07-22T03:46:27;96123.63;;;13.35;99.02
56668;BME280;42542;48.360;10.958;2023-07-22T03:49:30;96126.47;;;13.33;98.98
56668;BME280;42542;48.360;10.958;2023-07-22T03:52:32;96124.84;;;13.32;98.81
56668;BME280;42542;48.360;10.958;2023-07-22T03:55:37;96132.06;;;13.32;98.44
56668;BME280;42542;48.360;10.958;2023-07-22T03:58:47;96132.06;;;13.32;98.61
56668;BME280;42542;48.360;10.958;2023-07-22T04:01:52;96138.44;;;13.31;99.06
56668;BME280;42542;48.360;10.958;2023-07-22T04:04:56;96139.44;;;13.29;99.68
56668;BME280;42542;48.360;10.958;2023-07-22T04:08:02;96136.75;;;13.29;99.98
56668;BME280;42542;48.360;10.958;2023-07-22T04:11:06;96125.00;;;13.31;100.00
56668;BME280;42542;48.360;10.958;2023-07-22T04:14:10;96121.31;;;13.32;100.00
56668;BME280;42542;48.360;10.958;2023-07-22T04:17:17;96125.69;;;13.33;100.00
56668;BME280;42542;48.360;10.958;2023-07-22T04:20:22;96126.13;;;13.36;100.00
56668;BME280;42542;48.360;10.958;2023-07-22T04:23:26;96118.91;;;13.37;100.00
56668;BME280;42542;48.360;10.958;2023-07-22T04:26:32;96124.56;;;13.42;100.00
56668;BME280;42542;48.360;10.958;2023-07-22T04:29:35;96125.69;;;13.47;100.00
56668;BME280;42542;48.360;10.958;2023-07-22T04:32:41;96125.69;;;13.47;100.00
56668;BME280;42542;48.360;10.958;2023-07-22T04:35:45;96138.41;;;13.53;100.00
56668;BME280;42542;48.360;10.958;2023-07-22T04:38:50;96129.97;;;13.56;100.00
56668;BME280;42542;48.360;10.958;2023-07-22T04:41:52;96126.94;;;13.59;100.00
56668;BME280;42542;48.360;10.958;2023-07-22T04:44:56;96117.31;;;13.65;100.00
56668;BME280;42542;48.360;10.958;2023-07-22T04:48:01;96133.06;;;13.68;100.00
56668;BME280;42542;48.360;10.958;2023-07-22T04:51:05;96131.66;;;13.72;100.00
56668;BME280;42542;48.360;10.958;2023-07-22T04:54:11;96141.00;;;13.76;100.00
56668;BME280;42542;48.360;10.958;2023-07-22T04:57:16;96138.81;;;13.80;100.00
56668;BME280;42542;48.360;10.958;2023-07-22T05:00:20;96144.28;;;13.86;100.00
56668;BME280;42542;48.360;10.958;2023-07-22T05:03:25;96145.38;;;13.92;100.00
56668;BME280;42542;48.360;10.958;2023-07-22T05:06:30;96144.03;;;13.96;100.00
56668;BME280;42542;48.360;10.958;2023-07-22T05:09:34;96142.63;;;14.00;100.00
56668;BME280;42542;48.360;10.958;2023-07-22T05:12:39;96141.88;;;14.06;100.00
56668;BME280;42542;48.360;10.958;2023-07-22T05:15:44;96144.84;;;14.11;100.00
56668;BME280;42542;48.360;10.958;2023-07-22T05:18:51;96148.66;;;14.17;100.00
56668;BME280;42542;48.360;10.958;2023-07-22T05:21:54;96145.22;;;14.23;100.00
56668;BME280;42542;48.360;10.958;2023-07-22T05:24:59;96155.03;;;14.30;100.00
56668;BME280;42542;48.360;10.958;2023-07-22T05:28:01;96146.63;;;14.33;100.00
56668;BME280;42542;48.360;10.958;2023-07-22T05:31:05;96148.00;;;14.44;100.00
56668;BME280;42542;48.360;10.958;2023-07-22T05:34:09;96148.94;;;14.51;100.00
56668;BME280;42542;48.360;10.958;2023-07-22T05:37:11;96142.59;;;14.59;100.00
56668;BME280;42542;48.360;10.958;2023-07-22T05:40:23;96140.66;;;14.67;100.00
56668;BME280;42542;48.360;10.958;2023-07-22T05:43:29;96151.50;;;14.74;100.00
56668;BME280;42542;48.360;10.958;2023-07-22T05:46:34;96161.50;;;14.80;99.68
56668;BME280;42542;48.360;10.958;2023-07-22T05:49:37;96166.75;;;14.88;99.59
56668;BME280;42542;48.360;10.958;2023-07-22T05:52:42;96171.84;;;14.98;99.05
56668;BME280;42542;48.360;10.958;2023-07-22T05:55:50;96173.19;;;15.08;99.99
56668;BME280;42542;48.360;10.958;2023-07-22T05:58:55;96156.72;;;15.18;99.11
56668;BME280;42542;48.360;10.958;2023-07-22T06:01:58;96151.78;;;15.21;98.73
56668;BME280;42542;48.360;10.958;2023-07-22T06:05:01;96158.06;;;15.29;97.72
56668;BME280;42542;48.360;10.958;2023-07-22T06:08:18;96172.06;;;15.39;96.89
56668;BME280;42542;48.360;10.958;2023-07-22T06:11:25;96175.84;;;15.44;97.12
56668;BME280;42542;48.360;10.958;2023-07-22T06:14:28;96166.97;;;15.50;97.13
56668;BME280;42542;48.360;10.958;2023-07-22T06:17:33;96167.28;;;15.55;96.31
56668;BME280;42542;48.360;10.958;2023-07-22T06:20:38;96168.16;;;15.63;95.47
56668;BME280;42542;48.360;10.958;2023-07-22T06:23:46;96183.97;;;15.72;95.61
56668;BME280;42542;48.360;10.958;2023-07-22T06:26:49;96182.38;;;15.78;94.82
56668;BME280;42542;48.360;10.958;2023-07-22T06:29:56;96183.06;;;15.86;94.67
56668;BME280;42542;48.360;10.958;2023-07-22T06:33:01;96183.09;;;15.93;93.36
56668;BME280;42542;48.360;10.958;2023-07-22T06:36:05;96179.44;;;16.00;92.60
56668;BME280;42542;48.360;10.958;2023-07-22T06:39:11;96180.97;;;16.10;92.92
56668;BME280;42542;48.360;10.958;2023-07-22T06:42:13;96188.91;;;16.18;91.93
56668;BME280;42542;48.360;10.958;2023-07-22T06:45:19;96196.84;;;16.26;90.85
56668;BME280;42542;48.360;10.958;2023-07-22T06:48:33;96195.84;;;16.33;89.80
56668;BME280;42542;48.360;10.958;2023-07-22T06:51:37;96196.72;;;16.40;88.30
56668;BME280;42542;48.360;10.958;2023-07-22T06:54:41;96199.28;;;16.49;87.81
56668;BME280;42542;48.360;10.958;2023-07-22T06:57:49;96194.09;;;16.54;86.12
56668;BME280;42542;48.360;10.958;2023-07-22T07:00:56;96202.91;;;16.62;85.45
56668;BME280;42542;48.360;10.958;2023-07-22T07:03:59;96197.72;;;16.67;84.37
56668;BME280;42542;48.360;10.958;2023-07-22T07:07:04;96199.44;;;16.75;83.87
56668;BME280;42542;48.360;10.958;2023-07-22T07:10:10;96195.72;;;16.83;83.33
56668;BME280;42542;48.360;10.958;2023-07-22T07:13:13;96197.22;;;16.92;83.57
56668;BME280;42542;48.360;10.958;2023-07-22T07:16:27;96196.81;;;17.01;82.75
56668;BME280;42542;48.360;10.958;2023-07-22T07:19:32;96202.06;;;17.09;81.52
56668;BME280;42542;48.360;10.958;2023-07-22T07:22:37;96201.88;;;17.17;81.06
56668;BME280;42542;48.360;10.958;2023-07-22T07:25:42;96198.78;;;17.21;80.14
56668;BME280;42542;48.360;10.958;2023-07-22T07:28:47;96205.06;;;17.34;79.64
56668;BME280;42542;48.360;10.958;2023-07-22T07:31:51;96203.81;;;17.43;78.14
56668;BME280;42542;48.360;10.958;2023-07-22T07:34:57;96208.59;;;17.48;77.10
56668;BME280;42542;48.360;10.958;2023-07-22T07:38:01;96200.13;;;17.58;77.66
56668;BME280;42542;48.360;10.958;2023-07-22T07:41:06;96205.97;;;17.68;76.63
56668;BME280;42542;48.360;10.958;2023-07-22T07:44:10;96199.94;;;17.72;74.81
56668;BME280;42542;48.360;10.958;2023-07-22T07:47:14;96208.88;;;17.79;73.66
56668;BME280;42542;48.360;10.958;2023-07-22T07:50:21;96197.66;;;17.89;74.34
56668;BME280;42542;48.360;10.958;2023-07-22T07:53:26;96196.63;;;17.97;74.52
56668;BME280;42542;48.360;10.958;2023-07-22T07:56:30;96202.03;;;18.03;72.69
56668;BME280;42542;48.360;10.958;2023-07-22T07:59:34;96207.22;;;18.11;73.07
56668;BME280;42542;48.360;10.958;2023-07-22T08:02:43;96194.31;;;18.20;71.07
56668;BME280;42542;48.360;10.958;2023-07-22T08:05:47;96192.63;;;18.25;69.63
56668;BME280;42542;48.360;10.958;2023-07-22T08:08:50;96194.09;;;18.34;69.55
56668;BME280;42542;48.360;10.958;2023-07-22T08:12:01;96194.06;;;18.41;67.28
56668;BME280;42542;48.360;10.958;2023-07-22T08:15:07;96197.81;;;18.47;66.54
56668;BME280;42542;48.360;10.958;2023-07-22T08:18:19;96202.63;;;18.58;66.97
56668;BME280;42542;48.360;10.958;2023-07-22T08:21:24;96202.16;;;18.67;67.33
56668;BME280;42542;48.360;10.958;2023-07-22T08:24:27;96204.44;;;18.77;66.94
56668;BME280;42542;48.360;10.958;2023-07-22T08:27:29;96197.78;;;18.80;63.27
56668;BME280;42542;48.360;10.958;2023-07-22T08:30:34;96190.66;;;18.85;63.82
56668;BME280;42542;48.360;10.958;2023-07-22T08:33:40;96196.03;;;18.92;61.88
56668;BME280;42542;48.360;10.958;2023-07-22T08:36:46;96199.38;;;18.94;59.08
56668;BME280;42542;48.360;10.958;2023-07-22T08:39:49;96197.69;;;18.99;60.09
56668;BME280;42542;48.360;10.958;2023-07-22T08:42:53;96197.03;;;19.04;57.84
56668;BME280;42542;48.360;10.958;2023-07-22T08:46:00;96194.94;;;19.06;57.41
56668;BME280;42542;48.360;10.958;2023-07-22T08:49:07;96190.75;;;19.10;56.25
56668;BME280;42542;48.360;10.958;2023-07-22T08:52:11;96196.78;;;19.12;54.27
56668;BME280;42542;48.360;10.958;2023-07-22T08:55:18;96188.22;;;19.22;54.82
56668;BME280;42542;48.360;10.958;2023-07-22T08:58:24;96190.66;;;19.30;55.73
56668;BME280;42542;48.360;10.958;2023-07-22T09:01:29;96192.06;;;19.39;56.66
56668;BME280;42542;48.360;10.958;2023-07-22T09:04:32;96194.13;;;19.50;57.19
56668;BME280;42542;48.360;10.958;2023-07-22T09:07:37;96195.28;;;19.61;57.23
56668;BME280;42542;48.360;10.958;2023-07-22T09:10:43;96182.09;;;19.71;57.59
56668;BME280;42542;48.360;10.958;2023-07-22T09:13:51;96186.56;;;19.83;55.49
56668;BME280;42542;48.360;10.958;2023-07-22T09:16:55;96187.19;;;19.85;50.63
56668;BME280;42542;48.360;10.958;2023-07-22T09:20:07;96191.94;;;19.90;51.37
56668;BME280;42542;48.360;10.958;2023-07-22T09:23:11;96187.75;;;19.94;51.45
56668;BME280;42542;48.360;10.958;2023-07-22T09:26:18;96187.09;;;19.99;51.68
56668;BME280;42542;48.360;10.958;2023-07-22T09:29:33;96179.94;;;20.04;51.67
56668;BME280;42542;48.360;10.958;2023-07-22T09:32:37;96180.56;;;20.06;50.73
56668;BME280;42542;48.360;10.958;2023-07-22T09:35:45;96185.31;;;20.11;49.59
56668;BME280;42542;48.360;10.958;2023-07-22T09:39:04;96180.66;;;20.18;48.96
56668;BME280;42542;48.360;10.958;2023-07-22T09:42:08;96181.88;;;20.22;49.76
56668;BME280;42542;48.360;10.958;2023-07-22T09:45:22;96186.78;;;20.32;50.13
56668;BME280;42542;48.360;10.958;2023-07-22T09:48:25;96190.53;;;20.37;49.50
56668;BME280;42542;48.360;10.958;2023-07-22T09:51:33;96177.94;;;20.43;49.25
56668;BME280;42542;48.360;10.958;2023-07-22T09:54:54;96175.09;;;20.56;50.68
56668;BME280;42542;48.360;10.958;2023-07-22T09:58:03;96180.22;;;20.64;49.09
56668;BME280;42542;48.360;10.958;2023-07-22T10:01:21;96177.66;;;20.69;48.23
56668;BME280;42542;48.360;10.958;2023-07-22T10:04:33;96178.06;;;20.73;47.71
56668;BME280;42542;48.360;10.958;2023-07-22T10:07:37;96180.47;;;20.81;48.10
56668;BME280;42542;48.360;10.958;2023-07-22T10:10:42;96183.94;;;20.88;47.89
56668;BME280;42542;48.360;10.958;2023-07-22T10:13:55;96167.91;;;20.98;48.24
56668;BME280;42542;48.360;10.958;2023-07-22T10:17:03;96178.63;;;21.11;49.90
56668;BME280;42542;48.360;10.958;2023-07-22T10:20:08;96166.19;;;21.22;48.86
56668;BME280;42542;48.360;10.958;2023-07-22T10:23:20;96174.84;;;21.30;47.41
56668;BME280;42542;48.360;10.958;2023-07-22T10:26:28;96169.66;;;21.29;46.20
56668;BME280;42542;48.360;10.958;2023-07-22T10:29:48;96169.66;;;21.29;44.70
56668;BME280;42542;48.360;10.958;2023-07-22T10:32:55;96170.25;;;21.31;44.68
56668;BME280;42542;48.360;10.958;2023-07-22T10:36:16;96167.53;;;21.31;43.19
56668;BME280;42542;48.360;10.958;2023-07-22T10:39:28;96162.59;;;21.39;44.27
56668;BME280;42542;48.360;10.958;2023-07-22T10:42:34;96162.25;;;21.48;43.77
56668;BME280;42542;48.360;10.958;2023-07-22T10:45:49;96159.09;;;21.51;43.19
56668;BME280;42542;48.360;10.958;2023-07-22T10:48:51;96147.38;;;21.50;44.10
56668;BME280;42542;48.360;10.958;2023-07-22T10:52:12;96153.78;;;21.56;43.24
56668;BME280;42542;48.360;10.958;2023-07-22T10:55:19;96145.59;;;21.56;41.62
56668;BME280;42542;48.360;10.958;2023-07-22T10:58:23;96150.38;;;21.60;41.83
56668;BME280;42542;48.360;10.958;2023-07-22T11:01:34;96143.16;;;21.66;42.42
56668;BME280;42542;48.360;10.958;2023-07-22T11:04:40;96146.38;;;21.74;42.02
56668;BME280;42542;48.360;10.958;2023-07-22T11:08:03;96127.56;;;21.85;41.80
56668;BME280;42542;48.360;10.958;2023-07-22T11:11:14;96127.16;;;21.99;43.08
56668;BME280;42542;48.360;10.958;2023-07-22T11:14:21;96120.19;;;22.03;42.12
56668;BME280;42542;48.360;10.958;2023-07-22T11:17:30;96124.91;;;22.08;40.46
56668;BME280;42542;48.360;10.958;2023-07-22T11:20:34;96120.53;;;22.07;40.37
56668;BME280;42542;48.360;10.958;2023-07-22T11:23:38;96120.53;;;22.07;40.88
56668;BME280;42542;48.360;10.958;2023-07-22T11:26:41;96112.13;;;22.08;41.09
56668;BME280;42542;48.360;10.958;2023-07-22T11:29:49;96106.47;;;22.10;40.83
56668;BME280;42542;48.360;10.958;2023-07-22T11:32:57;96114.00;;;22.19;40.98
56668;BME280;42542;48.360;10.958;2023-07-22T11:36:02;96097.31;;;22.28;41.65
56668;BME280;42542;48.360;10.958;2023-07-22T11:39:25;96096.97;;;22.36;40.50
56668;BME280;42542;48.360;10.958;2023-07-22T11:42:29;96091.75;;;22.46;41.37
56668;BME280;42542;48.360;10.958;2023-07-22T11:45:34;96083.91;;;22.61;42.09
56668;BME280;42542;48.360;10.958;2023-07-22T11:48:51;96092.28;;;22.71;40.30
56668;BME280;42542;48.360;10.958;2023-07-22T11:52:09;96079.16;;;22.68;38.82
56668;BME280;42542;48.360;10.958;2023-07-22T11:55:22;96080.22;;;22.67;38.53
56668;BME280;42542;48.360;10.958;2023-07-22T11:58:40;96068.94;;;22.64;38.10
56668;BME280;42542;48.360;10.958;2023-07-22T12:01:46;96072.63;;;22.69;39.24
56668;BME280;42542;48.360;10.958;2023-07-22T12:05:03;96069.31;;;22.79;39.08
56668;BME280;42542;48.360;10.958;2023-07-22T12:08:14;96064.06;;;22.89;38.82
56668;BME280;42542;48.360;10.958;2023-07-22T12:14:32;96051.97;;;23.13;39.24
56668;BME280;42542;48.360;10.958;2023-07-22T12:17:52;96046.94;;;23.22;38.28
56668;BME280;42542;48.360;10.958;2023-07-22T12:21:03;96045.00;;;23.34;37.76
56668;BME280;42542;48.360;10.958;2023-07-22T12:24:14;96049.47;;;23.40;37.36
56668;BME280;42542;48.360;10.958;2023-07-22T12:27:17;96034.00;;;23.46;37.02
56668;BME280;42542;48.360;10.958;2023-07-22T12:30:24;96045.03;;;23.51;37.07
56668;BME280;42542;48.360;10.958;2023-07-22T12:33:35;96032.06;;;23.58;36.91
56668;BME280;42542;48.360;10.958;2023-07-22T12:36:40;96032.13;;;23.63;36.66
56668;BME280;42542;48.360;10.958;2023-07-22T12:39:48;96034.63;;;23.81;36.32
56668;BME280;42542;48.360;10.958;2023-07-22T12:42:55;96026.72;;;24.01;36.61
56668;BME280;42542;48.360;10.958;2023-07-22T12:45:57;96016.53;;;24.13;36.32
56668;BME280;42542;48.360;10.958;2023-07-22T12:49:00;96018.94;;;24.27;35.61
56668;BME280;42542;48.360;10.958;2023-07-22T12:52:05;96016.53;;;24.30;35.64
56668;BME280;42542;48.360;10.958;2023-07-22T12:55:10;96017.59;;;24.51;36.07
56668;BME280;42542;48.360;10.958;2023-07-22T12:58:13;96025.56;;;24.52;34.49
56668;BME280;42542;48.360;10.958;2023-07-22T13:01:16;96012.34;;;24.66;35.14
56668;BME280;42542;48.360;10.958;2023-07-22T13:04:20;96014.03;;;24.94;35.13
56668;BME280;42542;48.360;10.958;2023-07-22T13:07:30;96005.91;;;25.26;34.97
56668;BME280;42542;48.360;10.958;2023-07-22T13:10:35;96012.81;;;25.34;33.30
56668;BME280;42542;48.360;10.958;2023-07-22T13:13:46;96016.47;;;25.17;33.19
56668;BME280;42542;48.360;10.958;2023-07-22T13:16:49;96004.25;;;24.98;33.76
56668;BME280;42542;48.360;10.958;2023-07-22T13:19:57;96006.41;;;24.96;34.46
56668;BME280;42542;48.360;10.958;2023-07-22T13:23:03;96002.19;;;25.10;34.29
56668;BME280;42542;48.360;10.958;2023-07-22T13:26:06;96002.94;;;25.33;33.82
56668;BME280;42542;48.360;10.958;2023-07-22T13:29:12;95986.25;;;25.61;34.34
56668;BME280;42542;48.360;10.958;2023-07-22T13:32:16;95992.78;;;25.92;33.77
56668;BME280;42542;48.360;10.958;2023-07-22T13:35:24;95996.47;;;26.13;33.26
56668;BME280;42542;48.360;10.958;2023-07-22T13:38:28;95996.84;;;26.26;33.61
56668;BME280;42542;48.360;10.958;2023-07-22T13:41:34;95992.78;;;26.34;31.98
56668;BME280;42542;48.360;10.958;2023-07-22T13:44:37;95990.13;;;26.54;32.62
56668;BME280;42542;48.360;10.958;2023-07-22T13:47:43;95996.00;;;26.88;32.63
56668;BME280;42542;48.360;10.958;2023-07-22T13:50:50;95985.41;;;27.17;32.55
56668;BME280;42542;48.360;10.958;2023-07-22T13:53:52;95984.59;;;27.52;32.16
56668;BME280;42542;48.360;10.958;2023-07-22T13:56:59;95980.53;;;27.80;31.12
56668;BME280;42542;48.360;10.958;2023-07-22T14:00:09;95980.75;;;27.88;29.90
56668;BME280;42542;48.360;10.958;2023-07-22T14:03:14;95996.72;;;27.86;30.31
56668;BME280;42542;48.360;10.958;2023-07-22T14:06:19;95983.50;;;27.98;30.41
56668;BME280;42542;48.360;10.958;2023-07-22T14:09:38;95978.00;;;28.14;31.07
56668;BME280;42542;48.360;10.958;2023-07-22T14:12:40;95973.59;;;28.23;30.31
56668;BME280;42542;48.360;10.958;2023-07-22T14:15:42;95985.97;;;28.30;30.58
56668;BME280;42542;48.360;10.958;2023-07-22T14:18:46;95969.97;;;28.32;30.62
56668;BME280;42542;48.360;10.958;2023-07-22T14:21:49;95986.50;;;28.38;30.14
56668;BME280;42542;48.360;10.958;2023-07-22T14:24:56;95983.16;;;28.41;29.26
56668;BME280;42542;48.360;10.958;2023-07-22T14:28:01;95971.41;;;28.20;29.21
56668;BME280;42542;48.360;10.958;2023-07-22T14:31:04;95970.56;;;28.14;29.48
56668;BME280;42542;48.360;10.958;2023-07-22T14:34:09;95966.44;;;28.27;30.01
56668;BME280;42542;48.360;10.958;2023-07-22T14:37:12;95974.44;;;28.23;28.96
56668;BME280;42542;48.360;10.958;2023-07-22T14:40:17;95974.16;;;28.00;29.13
56668;BME280;42542;48.360;10.958;2023-07-22T14:43:22;95974.50;;;27.73;29.90
56668;BME280;42542;48.360;10.958;2023-07-22T14:46:28;95970.06;;;27.87;31.03
56668;BME280;42542;48.360;10.958;2023-07-22T14:49:35;95975.78;;;28.11;30.87
56668;BME280;42542;48.360;10.958;2023-07-22T14:52:39;95971.34;;;28.40;30.52
56668;BME280;42542;48.360;10.958;2023-07-22T14:55:44;95971.81;;;28.62;29.97
56668;BME280;42542;48.360;10.958;2023-07-22T14:58:54;95964.81;;;28.90;30.18
56668;BME280;42542;48.360;10.958;2023-07-22T15:01:57;95962.56;;;28.97;29.35
56668;BME280;42542;48.360;10.958;2023-07-22T15:05:03;95961.91;;;29.16;29.65
56668;BME280;42542;48.360;10.958;2023-07-22T15:08:07;95960.72;;;29.32;29.02
56668;BME280;42542;48.360;10.958;2023-07-22T15:11:15;95964.22;;;29.42;28.58
56668;BME280;42542;48.360;10.958;2023-07-22T15:14:18;95944.56;;;29.54;28.86
56668;BME280;42542;48.360;10.958;2023-07-22T15:17:21;95957.88;;;29.76;28.65
56668;BME280;42542;48.360;10.958;2023-07-22T15:20:28;95944.53;;;29.93;28.58
56668;BME280;42542;48.360;10.958;2023-07-22T15:23:31;95941.00;;;30.11;27.97
56668;BME280;42542;48.360;10.958;2023-07-22T15:26:33;95946.38;;;30.03;27.05
56668;BME280;42542;48.360;10.958;2023-07-22T15:29:38;95948.09;;;29.94;26.79
56668;BME280;42542;48.360;10.958;2023-07-22T15:32:41;95935.19;;;29.89;27.09
56668;BME280;42542;48.360;10.958;2023-07-22T15:35:47;95937.56;;;30.01;27.44
56668;BME280;42542;48.360;10.958;2023-07-22T15:38:50;95930.78;;;30.17;27.42
56668;BME280;42542;48.360;10.958;2023-07-22T15:41:53;95934.81;;;30.24;26.33
56668;BME280;42542;48.360;10.958;2023-07-22T15:44:56;95944.59;;;30.12;26.85
56668;BME280;42542;48.360;10.958;2023-07-22T15:48:00;95937.28;;;30.02;26.65
56668;BME280;42542;48.360;10.958;2023-07-22T15:51:09;95940.34;;;29.67;27.00
56668;BME280;42542;48.360;10.958;2023-07-22T15:54:14;95941.94;;;29.34;27.52
56668;BME280;42542;48.360;10.958;2023-07-22T15:57:18;95939.72;;;29.02;27.61
56668;BME280;42542;48.360;10.958;2023-07-22T16:00:21;95941.47;;;28.88;28.06
56668;BME280;42542;48.360;10.958;2023-07-22T16:03:26;95946.41;;;28.86;28.47
56668;BME280;42542;48.360;10.958;2023-07-22T16:06:42;95946.22;;;28.67;28.50
56668;BME280;42542;48.360;10.958;2023-07-22T16:09:49;95945.41;;;28.61;29.10
56668;BME280;42542;48.360;10.958;2023-07-22T16:13:02;95950.19;;;28.35;29.16